Time;durP1;ratioP1;P1;durP2;ratioP2;P2;SDS_P1;SDS_P2;PMS_P1;PMS_P2;Temp;Humidity;BMP_temperature;BMP_pressure;BME280_temperature;BME280_humidity;BME280_pressure;Samples;Min_cycle;Max_cycle;Signal;HPM_P1;HPM_P2
2022/10/02 00:00:02;;;;;;;;;;;12.30;99.90;;;;;;5029626;28;19940;-82
2022/10/02 00:03:09;;;;;;;;;;;12.30;99.90;;;;;;5046378;28;20085;-82
2022/10/02 00:05:37;;;;;;;;;;;12.30;99.90;;;;;;4989849;28;20228;-82
2022/10/02 00:08:21;;;;;;;;;;;12.30;99.90;;;;;;4990175;28;19921;-81
2022/10/02 00:10:53;;;;;;;;;;;12.30;99.90;;;;;;5001944;28;19909;-82
2022/10/02 00:13:26;;;;;;;;;;;12.30;99.90;;;;;;5042312;28;19916;-81
2022/10/02 00:15:52;;;;;;;;;;;12.30;99.90;;;;;;5042848;28;20179;-81
2022/10/02 00:18:27;;;;;;;;;;;12.30;99.90;;;;;;5041898;28;19948;-81
2022/10/02 00:21:02;;;;;;;;;;;12.40;99.90;;;;;;5042349;28;19913;-81
2022/10/02 00:23:35;;;;;;;;;;;12.40;99.90;;;;;;5041843;28;20089;-83
2022/10/02 00:26:17;;;;;;;;;;;12.40;99.90;;;;;;5024642;28;19914;-83
2022/10/02 00:28:49;;;;;;;;;;;12.40;99.90;;;;;;5040978;28;19947;-83
2022/10/02 00:31:31;;;;;;;;;;;12.50;99.90;;;;;;5026100;28;19932;-82
2022/10/02 00:34:11;;;;;;;;;;;12.50;99.90;;;;;;5053358;28;19948;-82
2022/10/02 00:37:03;;;;;;;;;;;12.50;99.90;;;;;;5028134;28;20206;-83
2022/10/02 00:39:47;;;;;;;;;;;12.50;99.90;;;;;;5029620;28;20204;-83
2022/10/02 00:42:34;;;;;;;;;;;12.50;99.90;;;;;;5044485;28;20108;-82
2022/10/02 00:45:14;;;;;;;;;;;12.60;99.90;;;;;;5046708;28;19909;-83
2022/10/02 00:48:06;;;;;;;;;;;12.60;99.90;;;;;;5045575;28;20397;-83
2022/10/02 00:50:52;;;;;;;;;;;12.50;99.90;;;;;;5027585;28;19917;-82
2022/10/02 00:53:36;;;;;;;;;;;12.60;99.90;;;;;;5021625;28;19921;-82
2022/10/02 00:56:17;;;;;;;;;;;12.60;99.90;;;;;;5039295;28;19918;-82
2022/10/02 00:58:45;;;;;;;;;;;12.50;99.90;;;;;;5040211;28;19917;-82
2022/10/02 01:01:13;;;;;;;;;;;12.50;99.90;;;;;;5025500;28;19917;-82
2022/10/02 01:03:45;;;;;;;;;;;12.50;99.90;;;;;;5041000;28;19910;-81
2022/10/02 01:06:11;;;;;;;;;;;12.40;99.90;;;;;;5039907;28;20097;-82
2022/10/02 01:08:37;;;;;;;;;;;12.40;99.90;;;;;;5027410;28;19924;-82
2022/10/02 01:11:03;;;;;;;;;;;12.40;99.90;;;;;;5011195;28;19948;-82
2022/10/02 01:13:29;;;;;;;;;;;12.40;99.90;;;;;;5010972;28;19918;-82
2022/10/02 01:15:55;;;;;;;;;;;12.40;99.90;;;;;;5026765;28;19909;-82
2022/10/02 01:18:21;;;;;;;;;;;12.30;99.90;;;;;;5027247;28;20115;-82
2022/10/02 01:20:48;;;;;;;;;;;12.30;99.90;;;;;;5026927;28;19971;-82
2022/10/02 01:23:23;;;;;;;;;;;12.30;99.90;;;;;;5027276;28;20361;-81
2022/10/02 01:25:48;;;;;;;;;;;12.30;99.90;;;;;;5027189;28;19911;-81
2022/10/02 01:28:14;;;;;;;;;;;12.20;99.90;;;;;;5026419;28;20242;-81
2022/10/02 01:30:41;;;;;;;;;;;12.20;99.90;;;;;;5027279;28;19909;-81
2022/10/02 01:33:07;;;;;;;;;;;12.20;99.90;;;;;;5043651;28;20164;-81
2022/10/02 01:35:34;;;;;;;;;;;12.10;99.90;;;;;;5009791;28;19917;-82
2022/10/02 01:38:02;;;;;;;;;;;12.10;99.90;;;;;;5042013;23;19929;-76
2022/10/02 01:40:32;;;;;;;;;;;12.00;99.90;;;;;;4993118;28;19916;-76
2022/10/02 01:43:21;;;;;;;;;;;12.00;99.90;;;;;;5021624;28;19910;-75
2022/10/02 01:45:52;;;;;;;;;;;12.00;99.90;;;;;;5020188;28;19910;-76
2022/10/02 01:48:38;;;;;;;;;;;12.00;99.90;;;;;;5023945;28;20000;-76
2022/10/02 01:51:22;;;;;;;;;;;12.00;99.90;;;;;;4998897;28;19929;-76
2022/10/02 01:54:06;;;;;;;;;;;11.90;99.90;;;;;;4985295;28;20237;-76
2022/10/02 01:56:51;;;;;;;;;;;11.90;99.90;;;;;;4989525;28;19910;-76
2022/10/02 01:59:54;;;;;;;;;;;11.90;99.90;;;;;;5003578;28;19910;-75
2022/10/02 02:02:32;;;;;;;;;;;11.90;99.90;;;;;;5003752;28;20086;-75
2022/10/02 02:05:18;;;;;;;;;;;11.90;99.90;;;;;;5003371;28;19917;-76
2022/10/02 02:08:07;;;;;;;;;;;11.90;99.90;;;;;;5003420;28;19984;-76
2022/10/02 02:10:45;;;;;;;;;;;11.90;99.90;;;;;;5003039;28;19941;-76
2022/10/02 02:13:34;;;;;;;;;;;11.80;99.90;;;;;;4989140;28;20010;-76
2022/10/02 02:16:16;;;;;;;;;;;11.90;99.90;;;;;;4984227;28;20141;-75
2022/10/02 02:18:47;;;;;;;;;;;11.80;99.90;;;;;;4999821;28;20133;-76
2022/10/02 02:21:17;;;;;;;;;;;11.80;99.90;;;;;;5002752;28;19929;-76
2022/10/02 02:23:43;;;;;;;;;;;11.80;99.90;;;;;;4971374;28;19965;-76
2022/10/02 02:26:11;;;;;;;;;;;11.80;99.90;;;;;;4999310;28;20367;-75
2022/10/02 02:28:39;;;;;;;;;;;11.90;99.90;;;;;;5001933;28;20204;-75
2022/10/02 02:31:04;;;;;;;;;;;11.90;99.90;;;;;;5018853;28;19910;-75
2022/10/02 02:33:39;;;;;;;;;;;11.90;99.90;;;;;;5001547;28;19909;-75
2022/10/02 02:36:12;;;;;;;;;;;11.90;99.90;;;;;;5002527;28;19916;-75
2022/10/02 02:38:40;;;;;;;;;;;11.90;99.90;;;;;;5018464;28;19914;-76
2022/10/02 02:41:10;;;;;;;;;;;11.90;99.90;;;;;;5017636;28;20223;-75
2022/10/02 02:43:45;;;;;;;;;;;11.90;99.90;;;;;;5018656;28;19916;-76
2022/10/02 02:46:17;;;;;;;;;;;11.90;99.90;;;;;;5000383;28;19914;-77
2022/10/02 02:48:45;;;;;;;;;;;12.00;99.90;;;;;;5018419;28;19918;-77
2022/10/02 02:51:17;;;;;;;;;;;12.00;99.90;;;;;;5017619;28;19939;-77
2022/10/02 02:53:52;;;;;;;;;;;12.00;99.90;;;;;;5018590;28;19925;-77
2022/10/02 02:56:18;;;;;;;;;;;12.00;99.90;;;;;;5016671;28;19941;-76
2022/10/02 02:59:03;;;;;;;;;;;12.00;99.90;;;;;;4985836;28;20205;-76
2022/10/02 03:01:29;;;;;;;;;;;12.00;99.90;;;;;;5016391;28;19945;-76
2022/10/02 03:03:54;;;;;;;;;;;12.10;99.90;;;;;;5002181;28;19910;-77
2022/10/02 03:06:20;;;;;;;;;;;12.10;99.90;;;;;;5017038;28;19918;-77
2022/10/02 03:08:47;;;;;;;;;;;12.10;99.90;;;;;;5003223;28;19909;-77
2022/10/02 03:11:46;;;;;;;;;;;12.20;99.90;;;;;;5017128;28;19909;-77
2022/10/02 03:14:46;;;;;;;;;;;12.20;99.90;;;;;;5002763;28;19941;-77
2022/10/02 03:17:28;;;;;;;;;;;12.20;99.90;;;;;;5002085;28;19918;-76
2022/10/02 03:20:10;;;;;;;;;;;12.20;99.90;;;;;;5002038;28;20017;-77
2022/10/02 03:22:52;;;;;;;;;;;12.20;99.90;;;;;;4984201;28;19910;-77
2022/10/02 03:25:38;;;;;;;;;;;12.30;99.90;;;;;;4982529;28;19910;-77
2022/10/02 03:28:06;;;;;;;;;;;12.30;99.90;;;;;;4982168;28;19914;-77
2022/10/02 03:30:32;;;;;;;;;;;12.20;99.90;;;;;;4982480;28;19941;-77
2022/10/02 03:32:59;;;;;;;;;;;12.30;99.90;;;;;;4994583;28;19918;-77
2022/10/02 03:35:25;;;;;;;;;;;12.20;99.90;;;;;;5017976;28;19910;-77
2022/10/02 03:37:53;;;;;;;;;;;12.30;99.90;;;;;;5016571;28;19949;-77
2022/10/02 03:40:23;;;;;;;;;;;12.30;99.90;;;;;;5018028;28;19924;-77
2022/10/02 03:42:50;;;;;;;;;;;12.30;99.90;;;;;;5017075;28;19918;-77
2022/10/02 03:45:16;;;;;;;;;;;12.30;99.90;;;;;;5017701;28;20116;-77
2022/10/02 03:47:42;;;;;;;;;;;12.40;99.90;;;;;;5000369;28;19929;-77
2022/10/02 03:50:08;;;;;;;;;;;12.30;99.90;;;;;;5017787;28;19949;-77
2022/10/02 03:52:34;;;;;;;;;;;12.30;99.90;;;;;;5001833;28;19910;-77
2022/10/02 03:55:18;;;;;;;;;;;12.40;99.90;;;;;;5017123;28;19917;-77
2022/10/02 03:57:44;;;;;;;;;;;12.30;99.90;;;;;;5001428;28;19909;-76
2022/10/02 04:00:34;;;;;;;;;;;12.40;99.90;;;;;;5017688;28;20161;-77
2022/10/02 04:03:01;;;;;;;;;;;12.40;99.90;;;;;;4983434;28;19910;-77
2022/10/02 04:05:40;;;;;;;;;;;12.40;99.90;;;;;;4966270;28;19910;-77
2022/10/02 04:08:27;;;;;;;;;;;12.40;99.90;;;;;;4981972;28;19921;-76
2022/10/02 04:11:03;;;;;;;;;;;12.40;99.90;;;;;;4986179;28;19910;-76
2022/10/02 04:13:33;;;;;;;;;;;12.40;99.90;;;;;;5001703;28;20205;-76
2022/10/02 04:16:04;;;;;;;;;;;12.40;99.90;;;;;;4997580;28;19961;-76
2022/10/02 04:18:44;;;;;;;;;;;12.40;99.90;;;;;;4981753;28;20205;-76
2022/10/02 04:21:22;;;;;;;;;;;12.40;99.90;;;;;;4986444;28;19932;-76
2022/10/02 04:23:54;;;;;;;;;;;12.40;99.90;;;;;;5002343;28;19945;-76
2022/10/02 04:26:23;;;;;;;;;;;12.40;99.90;;;;;;5017985;28;19925;-77
2022/10/02 04:28:53;;;;;;;;;;;12.40;99.90;;;;;;5020807;28;19918;-77
2022/10/02 04:31:18;;;;;;;;;;;12.40;99.90;;;;;;5004616;28;19940;-77
2022/10/02 04:33:44;;;;;;;;;;;12.40;99.90;;;;;;4991670;28;19911;-77
2022/10/02 04:36:10;;;;;;;;;;;12.40;99.90;;;;;;4985287;28;19910;-76
2022/10/02 04:38:59;;;;;;;;;;;12.40;99.90;;;;;;4996914;28;20109;-77
2022/10/02 04:41:28;;;;;;;;;;;12.40;99.90;;;;;;5004866;28;19945;-77
2022/10/02 04:44:14;;;;;;;;;;;12.40;99.90;;;;;;5005006;28;19918;-77
2022/10/02 04:46:58;;;;;;;;;;;12.40;99.90;;;;;;5005316;28;20151;-77
2022/10/02 04:49:42;;;;;;;;;;;12.40;99.90;;;;;;5005066;28;19909;-77
2022/10/02 04:52:45;;;;;;;;;;;12.40;99.90;;;;;;5004697;28;19925;-77
2022/10/02 04:55:16;;;;;;;;;;;12.40;99.90;;;;;;4985380;28;19989;-77
2022/10/02 04:57:42;;;;;;;;;;;12.40;99.90;;;;;;4984415;28;19910;-77
2022/10/02 05:00:14;;;;;;;;;;;12.40;99.90;;;;;;5005276;28;20259;-77
2022/10/02 05:03:02;;;;;;;;;;;12.40;99.90;;;;;;5004577;28;20116;-77
2022/10/02 05:05:42;;;;;;;;;;;12.40;99.90;;;;;;5004396;28;19917;-76
2022/10/02 05:08:08;;;;;;;;;;;12.40;99.90;;;;;;4984574;28;19922;-76
2022/10/02 05:10:34;;;;;;;;;;;12.50;99.90;;;;;;4986009;28;20002;-76
2022/10/02 05:13:28;;;;;;;;;;;12.50;99.90;;;;;;5004606;28;20249;-76
2022/10/02 05:16:31;;;;;;;;;;;12.50;99.90;;;;;;5004511;28;19976;-76
2022/10/02 05:19:18;;;;;;;;;;;12.60;99.90;;;;;;4990119;28;19917;-76
2022/10/02 05:22:19;;;;;;;;;;;12.60;99.90;;;;;;4993644;28;20000;-76
2022/10/02 05:24:57;;;;;;;;;;;12.60;99.90;;;;;;4999648;28;19960;-77
2022/10/02 05:27:31;;;;;;;;;;;12.60;99.90;;;;;;4995329;28;19920;-77
2022/10/02 05:30:10;;;;;;;;;;;12.60;99.90;;;;;;4996247;28;20146;-77
2022/10/02 05:32:43;;;;;;;;;;;12.70;99.90;;;;;;4971349;28;20145;-76
2022/10/02 05:35:14;;;;;;;;;;;12.70;99.90;;;;;;4983994;28;19918;-76
2022/10/02 05:37:43;;;;;;;;;;;12.70;99.90;;;;;;4983566;28;20109;-76
2022/10/02 05:40:14;;;;;;;;;;;12.70;99.90;;;;;;4985158;28;19918;-76
2022/10/02 05:43:13;;;;;;;;;;;12.70;99.90;;;;;;5000507;28;19910;-76
2022/10/02 05:45:51;;;;;;;;;;;12.70;99.90;;;;;;4989185;28;20187;-76
2022/10/02 05:48:28;;;;;;;;;;;12.80;99.90;;;;;;4987604;28;19916;-76
2022/10/02 05:50:58;;;;;;;;;;;12.80;99.90;;;;;;4988245;28;19917;-78
2022/10/02 05:53:37;;;;;;;;;;;12.80;99.90;;;;;;4984312;28;19925;-78
2022/10/02 05:56:11;;;;;;;;;;;12.80;99.90;;;;;;4984152;28;19929;-78
2022/10/02 05:58:40;;;;;;;;;;;12.80;99.90;;;;;;4988625;28;19913;-77
2022/10/02 06:01:10;;;;;;;;;;;12.80;99.90;;;;;;5020013;28;20424;-77
2022/10/02 06:04:12;;;;;;;;;;;12.70;99.90;;;;;;5018732;28;19909;-79
2022/10/02 06:06:40;;;;;;;;;;;12.80;99.90;;;;;;5013191;28;20240;-77
2022/10/02 06:09:15;;;;;;;;;;;12.70;99.90;;;;;;5002573;28;19956;-77
2022/10/02 06:12:03;;;;;;;;;;;12.70;99.90;;;;;;4987211;28;20208;-77
2022/10/02 06:14:34;;;;;;;;;;;12.70;99.90;;;;;;4985259;28;19929;-77
2022/10/02 06:17:07;;;;;;;;;;;12.70;99.90;;;;;;4986276;28;19910;-78
2022/10/02 06:19:36;;;;;;;;;;;12.70;99.90;;;;;;4985419;28;19910;-77
2022/10/02 06:22:12;;;;;;;;;;;12.70;99.90;;;;;;5004920;28;19910;-78
2022/10/02 06:24:44;;;;;;;;;;;12.80;99.90;;;;;;5020410;28;19944;-78
2022/10/02 06:27:14;;;;;;;;;;;12.80;99.90;;;;;;5018948;28;19921;-77
2022/10/02 06:29:41;;;;;;;;;;;12.80;99.90;;;;;;5020257;28;19988;-78
2022/10/02 06:32:19;;;;;;;;;;;12.80;99.90;;;;;;5022114;28;19994;-78
2022/10/02 06:34:44;;;;;;;;;;;12.80;99.90;;;;;;5004595;28;19933;-78
2022/10/02 06:37:49;;;;;;;;;;;12.90;99.90;;;;;;5005429;28;19913;-78
2022/10/02 06:40:15;;;;;;;;;;;12.90;99.90;;;;;;4985767;28;20224;-78
2022/10/02 06:42:59;;;;;;;;;;;12.90;99.90;;;;;;4986679;28;19917;-77
2022/10/02 06:45:34;;;;;;;;;;;12.90;99.90;;;;;;5002725;28;19910;-78
2022/10/02 06:48:06;;;;;;;;;;;12.90;99.90;;;;;;5003511;28;19920;-78
2022/10/02 06:50:45;;;;;;;;;;;12.90;99.90;;;;;;4973738;28;19910;-78
2022/10/02 06:53:36;;;;;;;;;;;12.90;99.90;;;;;;5003388;28;19918;-78
2022/10/02 06:56:23;;;;;;;;;;;13.00;99.90;;;;;;5006143;28;19925;-77
2022/10/02 06:58:57;;;;;;;;;;;13.00;99.90;;;;;;5005819;28;19921;-78
2022/10/02 07:01:25;;;;;;;;;;;13.00;99.90;;;;;;5004362;28;19918;-77
2022/10/02 07:04:11;;;;;;;;;;;13.00;99.90;;;;;;5002712;28;20112;-78
2022/10/02 07:06:53;;;;;;;;;;;13.10;99.90;;;;;;4984845;28;19989;-78
2022/10/02 07:09:26;;;;;;;;;;;13.10;99.90;;;;;;4967218;28;20133;-78
2022/10/02 07:12:01;;;;;;;;;;;13.10;99.90;;;;;;5000763;28;19938;-77
2022/10/02 07:14:44;;;;;;;;;;;13.20;99.90;;;;;;4988159;28;20101;-78
2022/10/02 07:17:13;;;;;;;;;;;13.20;99.90;;;;;;4989576;28;19913;-78
2022/10/02 07:20:09;;;;;;;;;;;13.20;99.90;;;;;;5005259;28;19917;-78
2022/10/02 07:23:13;;;;;;;;;;;13.30;99.90;;;;;;5006326;28;19910;-78
2022/10/02 07:25:58;;;;;;;;;;;13.20;99.90;;;;;;5005247;28;19909;-78
2022/10/02 07:28:28;;;;;;;;;;;13.30;99.90;;;;;;5004813;28;19981;-77
2022/10/02 07:31:09;;;;;;;;;;;13.30;99.90;;;;;;5006013;28;20222;-78
2022/10/02 07:34:01;;;;;;;;;;;13.30;99.90;;;;;;4976158;28;20094;-78
2022/10/02 07:36:56;;;;;;;;;;;13.30;99.90;;;;;;4984906;28;19910;-76
2022/10/02 07:39:43;;;;;;;;;;;13.30;99.90;;;;;;4983596;28;19949;-77
2022/10/02 07:42:33;;;;;;;;;;;13.30;99.90;;;;;;5004349;28;19917;-77
2022/10/02 07:45:18;;;;;;;;;;;13.30;99.90;;;;;;4995957;28;19910;-77
2022/10/02 07:48:25;;;;;;;;;;;13.40;99.90;;;;;;4982999;28;19928;-76
2022/10/02 07:50:54;;;;;;;;;;;13.40;99.90;;;;;;4996124;28;20209;-76
2022/10/02 07:53:39;;;;;;;;;;;13.40;99.90;;;;;;5002160;28;19913;-76
2022/10/02 07:56:06;;;;;;;;;;;13.30;99.90;;;;;;5003879;28;19918;-77
2022/10/02 07:59:11;;;;;;;;;;;13.40;99.90;;;;;;4988194;28;20135;-77
2022/10/02 08:01:38;;;;;;;;;;;13.40;99.90;;;;;;5007718;28;19914;-77
2022/10/02 08:04:16;;;;;;;;;;;13.40;99.90;;;;;;4972833;28;19937;-78
2022/10/02 08:06:43;;;;;;;;;;;13.40;99.90;;;;;;5006410;28;20010;-78
2022/10/02 08:09:11;;;;;;;;;;;13.40;99.90;;;;;;4989747;28;19917;-78
2022/10/02 08:12:22;;;;;;;;;;;13.40;99.90;;;;;;5008093;28;19933;-78
2022/10/02 08:14:48;;;;;;;;;;;13.40;99.90;;;;;;5008932;28;19941;-77
2022/10/02 08:17:55;;;;;;;;;;;13.40;99.90;;;;;;5023968;28;19917;-77
2022/10/02 08:20:29;;;;;;;;;;;13.40;99.90;;;;;;5027499;28;19956;-77
2022/10/02 08:23:06;;;;;;;;;;;13.40;99.90;;;;;;5022619;28;19976;-77
2022/10/02 08:25:37;;;;;;;;;;;13.40;99.90;;;;;;5005422;28;19913;-77
2022/10/02 08:28:31;;;;;;;;;;;13.40;99.90;;;;;;4990161;28;19914;-77
2022/10/02 08:30:57;;;;;;;;;;;13.40;99.90;;;;;;5006204;28;19949;-77
2022/10/02 08:33:23;;;;;;;;;;;13.50;99.90;;;;;;5006509;28;19917;-75
2022/10/02 08:36:00;;;;;;;;;;;13.40;99.90;;;;;;4999351;28;19940;-75
2022/10/02 08:38:39;;;;;;;;;;;13.40;99.90;;;;;;5025265;28;19929;-77
2022/10/02 08:41:42;;;;;;;;;;;13.40;99.90;;;;;;5011705;28;19910;-75
2022/10/02 08:44:21;;;;;;;;;;;13.40;99.90;;;;;;5018500;28;19910;-73
2022/10/02 08:47:04;;;;;;;;;;;13.40;99.90;;;;;;5014209;28;19972;-74
2022/10/02 08:49:33;;;;;;;;;;;13.40;99.90;;;;;;5006501;28;19909;-75
2022/10/02 08:52:23;;;;;;;;;;;13.40;99.90;;;;;;5004641;28;19909;-74
2022/10/02 08:54:59;;;;;;;;;;;13.40;99.90;;;;;;5000299;28;20292;-74
2022/10/02 08:57:51;;;;;;;;;;;13.40;99.90;;;;;;5002258;28;19948;-74
2022/10/02 09:00:16;;;;;;;;;;;13.40;99.90;;;;;;4987516;28;19918;-74
2022/10/02 09:02:55;;;;;;;;;;;13.40;99.90;;;;;;5003906;28;19949;-74
2022/10/02 09:05:27;;;;;;;;;;;13.40;99.90;;;;;;5005798;28;19925;-76
2022/10/02 09:08:22;;;;;;;;;;;13.40;99.90;;;;;;5005004;28;20324;-77
2022/10/02 09:11:25;;;;;;;;;;;13.50;99.90;;;;;;4999322;28;19919;-77
2022/10/02 09:14:09;;;;;;;;;;;13.40;99.90;;;;;;5002825;28;19910;-77
2022/10/02 09:16:38;;;;;;;;;;;13.50;99.90;;;;;;4997984;28;19916;-77
2022/10/02 09:19:20;;;;;;;;;;;13.50;99.90;;;;;;5005207;28;20064;-77
2022/10/02 09:21:54;;;;;;;;;;;13.50;99.90;;;;;;5005343;28;19910;-77
2022/10/02 09:24:58;;;;;;;;;;;13.50;99.90;;;;;;5009924;28;19913;-78
2022/10/02 09:27:58;;;;;;;;;;;13.50;99.90;;;;;;5005853;28;19936;-74
2022/10/02 09:30:46;;;;;;;;;;;13.50;99.90;;;;;;5008670;28;19994;-75
2022/10/02 09:33:43;;;;;;;;;;;13.60;99.90;;;;;;4988571;28;19916;-74
2022/10/02 09:36:11;;;;;;;;;;;13.60;99.90;;;;;;4987172;28;20255;-75
2022/10/02 09:38:46;;;;;;;;;;;13.60;99.90;;;;;;5003949;28;19914;-78
2022/10/02 09:41:25;;;;;;;;;;;13.60;99.90;;;;;;4992455;28;19910;-72
2022/10/02 09:43:53;;;;;;;;;;;13.60;99.90;;;;;;4989919;28;20015;-74
2022/10/02 09:46:37;;;;;;;;;;;13.60;99.90;;;;;;5005436;28;19913;-75
2022/10/02 09:49:02;;;;;;;;;;;13.60;99.90;;;;;;4987289;28;19949;-75
2022/10/02 09:51:43;;;;;;;;;;;13.60;99.90;;;;;;5004544;28;19922;-74
2022/10/02 09:54:16;;;;;;;;;;;13.60;99.90;;;;;;5006054;28;19917;-74
2022/10/02 09:57:02;;;;;;;;;;;13.60;99.90;;;;;;5007427;28;20139;-78
2022/10/02 09:59:28;;;;;;;;;;;13.60;99.90;;;;;;5005100;28;19964;-74
2022/10/02 10:02:38;;;;;;;;;;;13.60;99.90;;;;;;4991618;28;19914;-73
2022/10/02 10:05:38;;;;;;;;;;;13.60;99.90;;;;;;5002125;28;19940;-74
2022/10/02 10:08:09;;;;;;;;;;;13.60;99.90;;;;;;5003365;28;19922;-74
2022/10/02 10:11:06;;;;;;;;;;;13.60;99.90;;;;;;5004108;28;19909;-74
2022/10/02 10:13:50;;;;;;;;;;;13.60;99.90;;;;;;4984683;28;19910;-74
2022/10/02 10:16:34;;;;;;;;;;;13.60;99.90;;;;;;4984734;28;19937;-75
2022/10/02 10:19:30;;;;;;;;;;;13.60;99.90;;;;;;5004002;28;19910;-74
2022/10/02 10:22:20;;;;;;;;;;;13.60;99.90;;;;;;5003235;28;19917;-74
2022/10/02 10:25:24;;;;;;;;;;;13.60;99.90;;;;;;5002074;28;19914;-73
2022/10/02 10:28:02;;;;;;;;;;;13.60;99.90;;;;;;5002826;28;19918;-74
2022/10/02 10:30:43;;;;;;;;;;;13.60;99.90;;;;;;5003747;28;20323;-74
2022/10/02 10:33:40;;;;;;;;;;;13.60;99.90;;;;;;4991675;28;20259;-73
2022/10/02 10:39:58;;;;;;;;;;;13.70;99.90;;;;;;4995671;28;20215;-75
2022/10/02 10:42:26;;;;;;;;;;;13.60;99.90;;;;;;5003643;28;19918;-74
2022/10/02 10:44:54;;;;;;;;;;;13.60;99.90;;;;;;5002661;28;19909;-74
2022/10/02 10:47:38;;;;;;;;;;;13.50;99.90;;;;;;5002714;28;19914;-73
2022/10/02 10:50:07;;;;;;;;;;;13.50;99.90;;;;;;5001561;28;19918;-73
2022/10/02 10:53:04;;;;;;;;;;;13.50;99.90;;;;;;4985849;28;19918;-73
2022/10/02 10:55:56;;;;;;;;;;;13.50;99.90;;;;;;5002497;28;19910;-74
2022/10/02 10:58:54;;;;;;;;;;;13.50;99.90;;;;;;4998309;28;19985;-74
2022/10/02 11:01:22;;;;;;;;;;;13.50;99.90;;;;;;4983872;28;19913;-74
2022/10/02 11:03:52;;;;;;;;;;;13.60;99.90;;;;;;4969989;28;19993;-74
2022/10/02 11:06:28;;;;;;;;;;;13.60;99.90;;;;;;5001456;28;19922;-74
2022/10/02 11:09:09;;;;;;;;;;;13.60;99.90;;;;;;4983709;28;19918;-74
2022/10/02 11:11:37;;;;;;;;;;;13.60;99.90;;;;;;4985013;28;19910;-74
2022/10/02 11:14:06;;;;;;;;;;;13.70;99.90;;;;;;5002766;28;20109;-74
2022/10/02 11:16:47;;;;;;;;;;;13.70;99.90;;;;;;5002711;28;19996;-74
2022/10/02 11:19:35;;;;;;;;;;;13.70;99.90;;;;;;4983452;28;19964;-75
2022/10/02 11:22:35;;;;;;;;;;;13.70;99.90;;;;;;4986644;28;19985;-77
2022/10/02 11:25:32;;;;;;;;;;;13.80;99.90;;;;;;5000735;28;19910;-75
2022/10/02 11:28:09;;;;;;;;;;;13.70;99.90;;;;;;4987580;28;20235;-74
2022/10/02 11:30:57;;;;;;;;;;;13.70;99.90;;;;;;5002788;28;19910;-74
2022/10/02 11:33:43;;;;;;;;;;;13.80;99.90;;;;;;5015680;28;19981;-75
2022/10/02 11:36:41;;;;;;;;;;;13.80;99.90;;;;;;5018761;28;20132;-75
2022/10/02 11:39:13;;;;;;;;;;;13.80;99.90;;;;;;5009406;28;19921;-75
2022/10/02 11:41:45;;;;;;;;;;;13.80;99.90;;;;;;5005980;28;19944;-74
2022/10/02 11:44:16;;;;;;;;;;;13.80;99.90;;;;;;4988249;28;20086;-74
2022/10/02 11:46:55;;;;;;;;;;;13.80;99.90;;;;;;4985298;28;19914;-74
2022/10/02 11:49:35;;;;;;;;;;;13.70;99.90;;;;;;5003927;28;20171;-74
2022/10/02 11:52:08;;;;;;;;;;;13.80;99.90;;;;;;5005410;28;19910;-74
2022/10/02 11:54:44;;;;;;;;;;;13.80;99.90;;;;;;4989696;28;19917;-74
2022/10/02 11:57:24;;;;;;;;;;;13.70;99.90;;;;;;4989881;28;19917;-75
2022/10/02 12:00:35;;;;;;;;;;;13.70;99.90;;;;;;5005003;28;19910;-75
2022/10/02 12:03:10;;;;;;;;;;;13.70;99.90;;;;;;5010613;28;20506;-75
2022/10/02 12:05:54;;;;;;;;;;;13.70;99.90;;;;;;5006901;28;20252;-75
2022/10/02 12:08:55;;;;;;;;;;;13.70;99.90;;;;;;5004957;28;20235;-75
2022/10/02 12:11:36;;;;;;;;;;;13.70;99.90;;;;;;4988111;28;19910;-75
2022/10/02 12:14:22;;;;;;;;;;;13.70;99.90;;;;;;4986055;28;19960;-75
2022/10/02 12:16:52;;;;;;;;;;;13.70;99.90;;;;;;4985094;28;19924;-75
2022/10/02 12:29:05;;;;;;;;;;;13.70;99.90;;;;;;4985119;28;19920;-75
2022/10/02 12:31:39;;;;;;;;;;;13.80;99.90;;;;;;4985573;28;19963;-75
2022/10/02 12:34:43;;;;;;;;;;;13.80;99.90;;;;;;4987612;28;20246;-76
2022/10/02 12:37:18;;;;;;;;;;;13.80;99.90;;;;;;4987852;28;19921;-75
2022/10/02 12:39:53;;;;;;;;;;;13.90;99.90;;;;;;4971798;28;19994;-75
2022/10/02 12:42:50;;;;;;;;;;;13.90;99.90;;;;;;4985095;28;19910;-76
2022/10/02 12:45:16;;;;;;;;;;;13.90;99.90;;;;;;5000954;28;19910;-75
2022/10/02 12:47:57;;;;;;;;;;;13.90;99.90;;;;;;4984725;28;19969;-75
2022/10/02 12:51:10;;;;;;;;;;;13.90;99.90;;;;;;5000536;28;19932;-74
2022/10/02 12:53:43;;;;;;;;;;;13.90;99.90;;;;;;4990858;28;19933;-77
2022/10/02 12:56:27;;;;;;;;;;;13.90;99.90;;;;;;5003822;28;20094;-76
2022/10/02 12:59:35;;;;;;;;;;;13.90;99.90;;;;;;5004963;28;19918;-76
2022/10/02 13:02:28;;;;;;;;;;;13.90;99.90;;;;;;5003644;28;19933;-76
2022/10/02 13:05:06;;;;;;;;;;;13.90;99.90;;;;;;4990408;28;19918;-77
2022/10/02 13:08:21;;;;;;;;;;;13.90;99.90;;;;;;4985109;28;19918;-76
2022/10/02 13:11:17;;;;;;;;;;;13.90;99.90;;;;;;4990065;28;19917;-75
2022/10/02 13:13:57;;;;;;;;;;;13.90;99.90;;;;;;5004453;28;20268;-75
2022/10/02 13:16:53;;;;;;;;;;;13.80;99.90;;;;;;5003859;28;19955;-74
2022/10/02 13:19:25;;;;;;;;;;;13.80;99.90;;;;;;5007165;28;20209;-73
2022/10/02 13:22:23;;;;;;;;;;;13.80;99.90;;;;;;4988259;28;19914;-74
2022/10/02 13:25:31;;;;;;;;;;;13.90;99.90;;;;;;4994743;28;19909;-73
2022/10/02 13:28:12;;;;;;;;;;;13.80;99.90;;;;;;5003592;28;19914;-74
2022/10/02 13:31:02;;;;;;;;;;;13.80;99.90;;;;;;5002957;28;19949;-73
2022/10/02 13:33:56;;;;;;;;;;;13.80;99.90;;;;;;5003517;28;19977;-71
2022/10/02 13:36:34;;;;;;;;;;;13.80;99.90;;;;;;4983907;28;19933;-73
2022/10/02 13:39:28;;;;;;;;;;;13.80;99.90;;;;;;4983794;28;20093;-73
2022/10/02 13:42:00;;;;;;;;;;;13.80;99.90;;;;;;5004651;28;19945;-74
2022/10/02 13:44:35;;;;;;;;;;;13.80;99.90;;;;;;5003812;28;20220;-74
2022/10/02 13:47:01;;;;;;;;;;;13.70;99.90;;;;;;5002852;28;19914;-74
2022/10/02 13:49:57;;;;;;;;;;;13.70;99.90;;;;;;5002573;28;19916;-74
2022/10/02 13:52:35;;;;;;;;;;;13.70;99.90;;;;;;5003052;28;20093;-74
2022/10/02 13:55:09;;;;;;;;;;;13.70;99.90;;;;;;5002839;28;19910;-74
2022/10/02 13:57:41;;;;;;;;;;;13.70;99.90;;;;;;5002770;28;19917;-74
2022/10/02 14:00:39;;;;;;;;;;;13.70;99.90;;;;;;5003645;28;20215;-74
2022/10/02 14:03:27;;;;;;;;;;;13.60;99.90;;;;;;4986932;28;19917;-75
2022/10/02 14:06:20;;;;;;;;;;;13.70;99.90;;;;;;5003517;28;19909;-74
2022/10/02 14:08:56;;;;;;;;;;;13.60;99.90;;;;;;5004510;28;19956;-74
2022/10/02 14:11:42;;;;;;;;;;;13.60;99.90;;;;;;5003644;28;20104;-75
2022/10/02 14:14:13;;;;;;;;;;;13.70;99.90;;;;;;5004142;28;19914;-74
2022/10/02 14:17:18;;;;;;;;;;;13.70;99.90;;;;;;5003276;28;19956;-74
2022/10/02 14:19:52;;;;;;;;;;;13.60;99.90;;;;;;5004006;28;19925;-75
2022/10/02 14:22:47;;;;;;;;;;;13.60;99.90;;;;;;5003824;28;19952;-72
2022/10/02 14:25:28;;;;;;;;;;;13.60;99.90;;;;;;4993226;28;19957;-72
2022/10/02 14:28:03;;;;;;;;;;;13.70;99.90;;;;;;4994486;28;19926;-73
2022/10/02 14:30:38;;;;;;;;;;;13.60;99.90;;;;;;4984161;28;19918;-75
2022/10/02 14:33:22;;;;;;;;;;;13.60;99.90;;;;;;4967094;28;20001;-74
2022/10/02 14:36:12;;;;;;;;;;;13.60;99.90;;;;;;4990224;28;19925;-77
2022/10/02 14:39:02;;;;;;;;;;;13.60;99.90;;;;;;4985566;28;20112;-77
2022/10/02 14:41:56;;;;;;;;;;;13.60;99.90;;;;;;4983572;28;19949;-72
2022/10/02 14:44:44;;;;;;;;;;;13.60;99.90;;;;;;4983973;28;19910;-69
2022/10/02 14:47:16;;;;;;;;;;;13.60;99.90;;;;;;5002310;28;19921;-68
2022/10/02 14:49:45;;;;;;;;;;;13.60;99.90;;;;;;4990771;28;19921;-66
2022/10/02 14:52:13;;;;;;;;;;;13.60;99.90;;;;;;5000048;28;20114;-69
2022/10/02 14:54:49;;;;;;;;;;;13.70;99.90;;;;;;4992090;28;19950;-72
2022/10/02 14:57:14;;;;;;;;;;;13.70;99.90;;;;;;5001565;28;19914;-72
2022/10/02 14:59:59;;;;;;;;;;;13.70;99.90;;;;;;5003367;28;19937;-72
2022/10/02 15:02:30;;;;;;;;;;;13.70;99.90;;;;;;4982150;28;19914;-73
2022/10/02 15:05:20;;;;;;;;;;;13.70;99.90;;;;;;4984275;28;20221;-72
2022/10/02 15:07:45;;;;;;;;;;;13.70;99.90;;;;;;5001542;28;19984;-73
2022/10/02 15:10:18;;;;;;;;;;;13.70;99.90;;;;;;5000994;28;20148;-72
2022/10/02 15:12:52;;;;;;;;;;;13.70;99.90;;;;;;5001674;28;19985;-74
2022/10/02 15:15:37;;;;;;;;;;;13.70;99.90;;;;;;5001203;28;19918;-73
2022/10/02 15:18:24;;;;;;;;;;;13.70;99.90;;;;;;4985493;28;19977;-72
2022/10/02 15:20:59;;;;;;;;;;;13.70;99.90;;;;;;4994730;28;19914;-72
2022/10/02 15:23:44;;;;;;;;;;;13.70;99.90;;;;;;4982106;28;19941;-72
2022/10/02 15:26:36;;;;;;;;;;;13.70;99.90;;;;;;4990523;28;20244;-73
2022/10/02 15:29:20;;;;;;;;;;;13.70;99.90;;;;;;5015216;28;19972;-73
2022/10/02 15:32:05;;;;;;;;;;;13.70;99.90;;;;;;5002096;28;19957;-73
2022/10/02 15:34:34;;;;;;;;;;;13.60;99.90;;;;;;5002740;28;19956;-72
2022/10/02 15:37:12;;;;;;;;;;;13.60;99.90;;;;;;4986460;28;19910;-72
2022/10/02 15:39:40;;;;;;;;;;;13.60;99.90;;;;;;4982301;28;20086;-72